createdAt,value
2018-06-04T00:00:30.354Z,33.50
2018-06-04T00:02:59.935Z,33.90
2018-06-04T00:05:29.849Z,32.97
2018-06-04T00:07:59.426Z,32.77
2018-06-04T00:10:29.556Z,34.83
2018-06-04T00:12:59.182Z,32.17
2018-06-04T00:15:29.239Z,36.23
2018-06-04T00:17:58.911Z,34.30
2018-06-04T00:20:28.738Z,32.50
2018-06-04T00:22:58.557Z,33.87
2018-06-04T00:25:28.370Z,32.60
2018-06-04T00:27:57.998Z,35.23
2018-06-04T00:30:28.041Z,39.63
2018-06-04T00:32:57.778Z,35.73
2018-06-04T00:35:27.326Z,35.20
2018-06-04T00:37:56.940Z,33.83
2018-06-04T00:40:26.681Z,35.70
2018-06-04T00:42:56.387Z,39.10
2018-06-04T00:45:26.092Z,35.23
2018-06-04T00:47:55.724Z,35.07
2018-06-04T00:50:25.372Z,34.83
2018-06-04T00:52:54.947Z,32.27
2018-06-04T00:55:24.576Z,36.90
2018-06-04T00:57:54.173Z,35.37
2018-06-04T01:00:23.827Z,36.50
2018-06-04T01:02:53.407Z,32.10
2018-06-04T01:05:23.002Z,38.90
2018-06-04T01:07:52.683Z,36.33
2018-06-04T01:10:22.250Z,36.03
2018-06-04T01:12:51.875Z,38.67
2018-06-04T01:15:21.494Z,40.33
2018-06-04T01:17:51.260Z,38.50
2018-06-04T01:20:20.811Z,35.23
2018-06-04T01:22:50.535Z,34.93
2018-06-04T01:25:20.192Z,38.17
2018-06-04T01:27:49.852Z,38.30
2018-06-04T01:30:19.461Z,37.13
2018-06-04T01:32:49.116Z,38.33
2018-06-04T01:35:18.765Z,37.47
2018-06-04T01:37:48.449Z,41.20
2018-06-04T01:40:18.039Z,40.70
2018-06-04T01:42:47.644Z,39.03
2018-06-04T01:45:17.186Z,39.07
2018-06-04T01:47:46.784Z,38.50
2018-06-04T01:50:16.340Z,35.83
2018-06-04T01:52:45.943Z,38.83
2018-06-04T01:55:15.635Z,38.27
2018-06-04T01:57:45.260Z,38.83
2018-06-04T02:00:14.885Z,36.57
2018-06-04T02:02:44.465Z,39.33
2018-06-04T02:05:14.134Z,38.60
2018-06-04T02:07:50.252Z,38.63
2018-06-04T02:10:19.525Z,38.53
2018-06-04T02:12:49.101Z,36.97
2018-06-04T02:15:18.676Z,36.07
2018-06-04T02:17:48.288Z,35.87
2018-06-04T02:20:17.852Z,38.53
2018-06-04T02:22:47.441Z,39.43
2018-06-04T02:25:17.118Z,42.27
2018-06-04T02:27:46.712Z,40.53
2018-06-04T02:30:16.316Z,40.83
2018-06-04T02:32:45.743Z,41.50
2018-06-04T02:35:15.288Z,42.73
2018-06-04T02:37:44.841Z,41.43
2018-06-04T02:40:14.587Z,43.53
2018-06-04T02:42:44.115Z,40.57
2018-06-04T02:45:13.656Z,43.77
2018-06-04T02:47:43.613Z,43.83
2018-06-04T02:50:13.314Z,45.23
2018-06-04T02:52:43.297Z,44.93
2018-06-04T02:55:12.856Z,42.60
2018-06-04T02:57:42.880Z,43.90
2018-06-04T03:00:12.431Z,46.40
2018-06-04T03:02:42.518Z,44.27
2018-06-04T03:05:12.199Z,48.50
2018-06-04T03:07:41.999Z,47.10
2018-06-04T03:10:11.611Z,42.87
2018-06-04T03:12:41.248Z,43.80
2018-06-04T03:15:10.658Z,45.17
2018-06-04T03:17:40.332Z,42.80
2018-06-04T03:20:09.974Z,44.73
2018-06-04T03:22:39.648Z,46.43
2018-06-04T03:25:10.280Z,46.37
2018-06-04T03:27:39.948Z,46.87
2018-06-04T03:30:10.269Z,48.70
2018-06-04T03:32:39.916Z,47.40
2018-06-04T03:35:09.510Z,44.87
2018-06-04T03:37:39.103Z,49.50
2018-06-04T03:40:08.679Z,43.63
2018-06-04T03:42:38.231Z,39.43
2018-06-04T03:45:07.640Z,39.87
2018-06-04T03:47:37.213Z,42.53
2018-06-04T03:50:09.817Z,39.70
2018-06-04T03:52:39.425Z,38.50
2018-06-04T03:55:09.055Z,38.00
2018-06-04T03:57:38.591Z,35.23
2018-06-04T04:00:08.328Z,40.67
2018-06-04T04:02:37.864Z,36.47
2018-06-04T04:05:08.131Z,38.27
2018-06-04T04:07:37.709Z,36.17
2018-06-04T04:10:07.289Z,33.37
2018-06-04T04:12:36.856Z,32.07
2018-06-04T04:15:06.436Z,32.37
2018-06-04T04:17:36.069Z,32.37
2018-06-04T04:20:05.812Z,31.77
2018-06-04T04:22:35.629Z,29.17
2018-06-04T04:25:05.267Z,28.37
2018-06-04T04:27:36.019Z,28.03
2018-06-04T04:30:05.835Z,26.33
2018-06-04T04:32:35.544Z,26.97
2018-06-04T04:35:05.356Z,26.97
2018-06-04T04:37:35.014Z,25.90
2018-06-04T04:40:04.670Z,26.57
2018-06-04T04:42:34.232Z,27.50
2018-06-04T04:45:03.802Z,25.47
2018-06-04T04:47:33.342Z,24.77
2018-06-04T04:50:02.880Z,28.37
2018-06-04T04:52:32.604Z,28.60
2018-06-04T04:55:02.158Z,26.70
2018-06-04T04:57:31.775Z,32.43
2018-06-04T05:00:01.045Z,30.87
2018-06-04T05:02:30.731Z,30.30
2018-06-04T05:05:00.294Z,31.20
2018-06-04T05:07:29.904Z,36.00
2018-06-04T05:09:59.435Z,32.97
2018-06-04T05:12:29.083Z,31.20
2018-06-04T05:14:58.626Z,30.37
2018-06-04T05:17:28.264Z,35.80
2018-06-04T05:19:57.946Z,30.07
2018-06-04T05:22:27.552Z,30.97
2018-06-04T05:24:57.193Z,30.77
2018-06-04T05:27:26.837Z,31.20
2018-06-04T05:29:56.769Z,31.62
2018-06-04T05:32:26.440Z,31.33
2018-06-04T05:34:56.469Z,32.13
2018-06-04T05:37:26.142Z,29.50
2018-06-04T05:39:56.367Z,32.28
2018-06-04T05:42:25.990Z,31.07
2018-06-04T05:44:55.894Z,31.07
2018-06-04T05:47:25.568Z,30.43
2018-06-04T05:49:55.505Z,30.68
2018-06-04T05:52:25.019Z,31.15
2018-06-04T05:54:55.189Z,33.38
2018-06-04T05:57:24.911Z,34.33
2018-06-04T05:59:57.580Z,30.50
2018-06-04T06:02:27.182Z,30.27
2018-06-04T06:04:57.180Z,31.25
2018-06-04T06:07:26.801Z,33.15
2018-06-04T06:09:56.774Z,31.75
2018-06-04T06:12:26.428Z,31.42
2018-06-04T06:14:56.513Z,32.10
2018-06-04T06:17:26.137Z,32.85
2018-06-04T06:19:55.901Z,32.70
2018-06-04T06:22:25.653Z,30.97
2018-06-04T06:24:55.242Z,30.72
2018-06-04T06:27:24.549Z,34.75
2018-06-04T06:29:54.195Z,35.05
2018-06-04T06:32:23.794Z,33.00
2018-06-04T06:34:53.446Z,32.17
2018-06-04T06:37:25.700Z,32.30
2018-06-04T06:39:55.357Z,36.75
2018-06-04T06:42:24.960Z,33.50
2018-06-04T06:44:54.566Z,33.02
2018-06-04T06:47:24.242Z,38.92
2018-06-04T06:49:53.843Z,31.77
2018-06-04T06:52:23.500Z,32.17
2018-06-04T06:54:53.266Z,34.25
2018-06-04T06:57:22.852Z,32.08
2018-06-04T06:59:52.471Z,29.00
2018-06-04T07:02:22.098Z,29.95
2018-06-04T07:04:51.765Z,29.70
2018-06-04T07:07:21.386Z,32.38
2018-06-04T07:09:50.964Z,30.75
2018-06-04T07:12:20.608Z,29.25
2018-06-04T07:14:50.277Z,29.42
2018-06-04T07:17:19.906Z,28.60
2018-06-04T07:19:49.439Z,27.90
2018-06-04T07:22:19.022Z,31.90
2018-06-04T07:24:48.629Z,29.70
2018-06-04T07:27:18.385Z,29.72
2018-06-04T07:29:48.129Z,31.23
2018-06-04T07:32:17.744Z,25.77
2018-06-04T07:34:47.347Z,27.02
2018-06-04T07:37:17.275Z,29.63
2018-06-04T07:39:46.923Z,28.00
2018-06-04T07:42:17.004Z,25.40
2018-06-04T07:44:46.709Z,26.82
2018-06-04T07:47:16.289Z,26.70
2018-06-04T07:49:46.274Z,26.10
2018-06-04T07:52:15.893Z,28.02
2018-06-04T07:54:45.596Z,28.62
2018-06-04T07:57:15.369Z,27.15
2018-06-04T07:59:45.013Z,27.05
2018-06-04T08:02:14.762Z,28.62
2018-06-04T08:04:44.095Z,28.52
2018-06-04T08:07:13.733Z,27.50
2018-06-04T08:09:43.363Z,26.10
2018-06-04T08:12:13.116Z,25.57
2018-06-04T08:14:44.192Z,23.85
2018-06-04T08:17:14.329Z,28.45
2018-06-04T08:19:44.189Z,28.70
2018-06-04T08:22:13.953Z,21.52
2018-06-04T08:24:43.552Z,24.40
2018-06-04T08:27:13.299Z,25.88
2018-06-04T08:29:42.974Z,23.45
2018-06-04T08:32:12.616Z,22.20
2018-06-04T08:34:42.245Z,22.32
2018-06-04T08:37:11.975Z,20.43
2018-06-04T08:39:41.611Z,23.70
2018-06-04T08:42:11.704Z,24.32
2018-06-04T08:44:41.317Z,25.55
2018-06-04T08:47:11.560Z,22.47
2018-06-04T08:49:41.158Z,25.97
2018-06-04T08:52:11.185Z,25.83
2018-06-04T08:54:41.717Z,27.40
2018-06-04T08:57:11.803Z,27.97
2018-06-04T08:59:41.500Z,32.67
2018-06-04T09:02:11.668Z,29.43
2018-06-04T09:04:41.451Z,27.50
2018-06-04T09:07:11.721Z,26.47
2018-06-04T09:09:41.545Z,26.30
2018-06-04T09:12:11.556Z,21.17
2018-06-04T09:14:41.200Z,22.80
2018-06-04T09:17:11.346Z,25.53
2018-06-04T09:19:41.049Z,27.13
2018-06-04T09:22:10.752Z,24.23
2018-06-04T09:24:40.436Z,28.43
2018-06-04T09:27:10.017Z,28.33
2018-06-04T09:29:39.598Z,31.43
2018-06-04T09:32:09.209Z,26.80
2018-06-04T09:34:38.785Z,26.07
2018-06-04T09:37:08.392Z,30.80
2018-06-04T09:39:38.074Z,28.93
2018-06-04T09:42:07.853Z,24.90
2018-06-04T09:44:37.525Z,24.53
2018-06-04T09:47:07.174Z,25.73
2018-06-04T09:49:36.819Z,25.63
2018-06-04T09:52:06.462Z,22.37
2018-06-04T09:54:36.146Z,25.13
2018-06-04T09:57:05.855Z,27.50
2018-06-04T09:59:35.538Z,26.30
2018-06-04T10:02:05.259Z,25.10
2018-06-04T10:04:34.900Z,22.00
2018-06-04T10:07:04.530Z,23.17
2018-06-04T10:09:34.175Z,20.70
2018-06-04T10:12:03.830Z,25.43
2018-06-04T10:14:33.436Z,23.77
2018-06-04T10:17:03.217Z,21.20
2018-06-04T10:19:32.901Z,23.97
2018-06-04T10:22:02.516Z,22.97
2018-06-04T10:24:32.169Z,19.62
2018-06-04T10:27:01.890Z,19.90
2018-06-04T10:29:31.544Z,20.02
2018-06-04T10:32:01.215Z,22.05
2018-06-04T10:34:30.962Z,20.12
2018-06-04T10:37:00.776Z,18.15
2018-06-04T10:39:30.509Z,18.75
2018-06-04T10:42:00.281Z,16.37
2018-06-04T10:44:29.987Z,18.10
2018-06-04T10:46:59.869Z,19.05
2018-06-04T10:49:29.501Z,15.23
2018-06-04T10:51:59.326Z,18.07
2018-06-04T10:54:28.984Z,16.77
2018-06-04T10:56:58.652Z,18.00
2018-06-04T10:59:28.440Z,15.77
2018-06-04T11:01:58.129Z,16.63
2018-06-04T11:04:27.908Z,17.57
2018-06-04T11:06:57.738Z,14.55
2018-06-04T11:09:27.597Z,16.82
2018-06-04T11:11:57.337Z,15.53
2018-06-04T11:14:27.135Z,15.27
2018-06-04T11:16:56.828Z,14.60
2018-06-04T11:19:26.673Z,15.77
2018-06-04T11:21:56.798Z,16.93
2018-06-04T11:24:26.754Z,13.77
2018-06-04T11:26:56.681Z,18.90
2018-06-04T11:29:26.332Z,18.20
2018-06-04T11:31:56.137Z,21.83
2018-06-04T11:34:26.066Z,20.87
2018-06-04T11:36:55.669Z,20.73
2018-06-04T11:39:25.839Z,20.57
2018-06-04T11:42:02.209Z,21.87
2018-06-04T11:44:31.848Z,24.27
2018-06-04T11:47:01.510Z,23.37
2018-06-04T11:49:31.225Z,24.27
2018-06-04T11:52:00.957Z,33.50
2018-06-04T11:54:30.594Z,30.60
2018-06-04T11:57:00.528Z,28.80
2018-06-04T11:59:30.209Z,30.23
2018-06-04T12:01:59.885Z,32.47
2018-06-04T12:04:29.313Z,31.17
2018-06-04T12:06:59.014Z,29.70
2018-06-04T12:09:28.848Z,30.47
2018-06-04T12:11:58.598Z,30.13
2018-06-04T12:14:28.479Z,29.53
2018-06-04T12:16:58.286Z,25.97
2018-06-04T12:19:28.439Z,29.10
2018-06-04T12:21:58.002Z,34.30
2018-06-04T12:24:28.155Z,30.27
2018-06-04T12:26:57.913Z,28.57
2018-06-04T12:29:27.996Z,32.53
2018-06-04T12:31:57.679Z,28.47
2018-06-04T12:34:27.814Z,30.57
2018-06-04T12:36:57.439Z,31.83
2018-06-04T12:39:27.725Z,29.70
2018-06-04T12:41:57.394Z,29.77
2018-06-04T12:44:27.294Z,30.03
2018-06-04T12:46:56.979Z,29.83
2018-06-04T12:49:26.606Z,28.77
2018-06-04T12:51:56.201Z,29.57
2018-06-04T12:54:25.920Z,25.10
2018-06-04T12:56:55.765Z,25.97
2018-06-04T12:59:25.440Z,27.70
2018-06-04T13:01:55.077Z,30.30
2018-06-04T13:04:24.766Z,27.77
2018-06-04T13:06:54.397Z,28.40
2018-06-04T13:09:23.733Z,21.03
2018-06-04T13:11:53.460Z,21.73
2018-06-04T13:14:23.073Z,20.83
2018-06-04T13:16:52.887Z,22.93
2018-06-04T13:19:22.484Z,22.63
2018-06-04T13:21:52.116Z,26.53
2018-06-04T13:24:21.803Z,22.83
2018-06-04T13:26:51.329Z,27.30
2018-06-04T13:29:20.939Z,26.77
2018-06-04T13:31:50.575Z,34.23
2018-06-04T13:34:20.138Z,28.87
2018-06-04T13:36:49.862Z,29.93
2018-06-04T13:39:19.630Z,30.07
2018-06-04T13:41:49.263Z,30.27
2018-06-04T13:44:19.266Z,32.37
2018-06-04T13:46:48.949Z,31.73
2018-06-04T13:49:18.635Z,35.97
2018-06-04T13:51:48.233Z,33.13
2018-06-04T13:54:17.921Z,31.23
2018-06-04T13:56:47.587Z,31.53
2018-06-04T13:59:17.268Z,30.53
2018-06-04T14:01:46.906Z,30.50
2018-06-04T14:04:16.670Z,27.77
2018-06-04T14:06:46.800Z,27.70
2018-06-04T14:09:16.490Z,32.90
2018-06-04T14:11:46.252Z,34.57
2018-06-04T14:14:15.954Z,27.23
2018-06-04T14:16:45.594Z,31.37
2018-06-04T14:19:15.329Z,25.67
2018-06-04T14:21:45.120Z,28.43
2018-06-04T14:24:14.829Z,29.97
2018-06-04T14:26:44.568Z,25.83
2018-06-04T14:29:14.217Z,31.07
2018-06-04T14:31:43.913Z,29.70
2018-06-04T14:34:13.693Z,28.10
2018-06-04T14:36:43.340Z,27.60
2018-06-04T14:39:13.109Z,25.57
2018-06-04T14:41:42.759Z,25.63
2018-06-04T14:44:12.363Z,28.23
2018-06-04T14:46:42.012Z,26.77
2018-06-04T14:49:11.699Z,22.93
2018-06-04T14:51:41.556Z,25.27
2018-06-04T14:54:11.227Z,23.07
2018-06-04T14:56:41.492Z,19.37
2018-06-04T14:59:11.250Z,24.17
2018-06-04T15:01:41.518Z,22.57
2018-06-04T15:04:11.169Z,23.07
2018-06-04T15:06:41.278Z,24.43
2018-06-04T15:09:10.922Z,25.10
2018-06-04T15:11:41.068Z,28.77
2018-06-04T15:14:10.710Z,22.27
2018-06-04T15:16:40.896Z,28.07
2018-06-04T15:19:10.749Z,25.80
2018-06-04T15:21:40.864Z,22.77
2018-06-04T15:24:10.559Z,24.40
2018-06-04T15:26:40.996Z,22.70
2018-06-04T15:29:10.651Z,22.03
2018-06-04T15:31:40.743Z,21.90
2018-06-04T15:34:10.565Z,24.27
2018-06-04T15:36:40.424Z,21.90
2018-06-04T15:39:10.616Z,21.60
2018-06-04T15:41:40.462Z,23.27
2018-06-04T15:44:10.248Z,26.13
2018-06-04T15:46:39.831Z,21.07
2018-06-04T15:49:09.599Z,22.07
2018-06-04T15:51:39.180Z,21.10
2018-06-04T15:54:08.944Z,20.70
2018-06-04T15:56:38.649Z,20.93
2018-06-04T15:59:08.362Z,20.90
2018-06-04T16:01:37.966Z,20.43
2018-06-04T16:04:07.570Z,20.10
2018-06-04T16:06:37.240Z,21.47
2018-06-04T16:09:07.863Z,20.13
2018-06-04T16:11:37.523Z,20.73
2018-06-04T16:14:07.171Z,20.80
2018-06-04T16:16:36.830Z,23.07
2018-06-04T16:19:06.582Z,20.20
2018-06-04T16:21:36.225Z,21.87
2018-06-04T16:24:05.884Z,21.07
2018-06-04T16:26:35.679Z,22.87
2018-06-04T16:29:05.455Z,23.73
2018-06-04T16:31:35.212Z,17.77
2018-06-04T16:34:05.045Z,22.53
2018-06-04T16:36:34.819Z,21.13
2018-06-04T16:39:07.368Z,23.77
2018-06-04T16:41:37.206Z,19.00
2018-06-04T16:44:07.070Z,19.83
2018-06-04T16:46:36.797Z,23.83
2018-06-04T16:49:06.452Z,23.43
2018-06-04T16:51:36.177Z,22.87
2018-06-04T16:54:05.844Z,19.07
2018-06-04T16:56:35.464Z,24.30
2018-06-04T16:59:05.506Z,23.77
2018-06-04T17:01:35.899Z,20.90
2018-06-04T17:04:05.724Z,24.53
2018-06-04T17:06:35.435Z,24.37
2018-06-04T17:09:07.276Z,24.27
2018-06-04T17:11:36.985Z,26.20
2018-06-04T17:14:07.437Z,26.23
2018-06-04T17:16:37.218Z,25.30
2018-06-04T17:19:06.904Z,23.27
2018-06-04T17:21:36.597Z,22.50
2018-06-04T17:24:06.531Z,22.87
2018-06-04T17:26:36.191Z,24.70
2018-06-04T17:29:05.949Z,38.70
2018-06-04T17:31:35.771Z,23.97
2018-06-04T17:34:05.443Z,25.27
2018-06-04T17:36:35.051Z,23.57
2018-06-04T17:39:06.611Z,20.40
2018-06-04T17:41:36.891Z,22.90
2018-06-04T17:44:06.644Z,23.77
2018-06-04T17:46:36.358Z,24.57
2018-06-04T17:49:06.095Z,24.70
2018-06-04T17:51:35.740Z,23.40
2018-06-04T17:54:05.511Z,21.60
2018-06-04T17:56:35.233Z,22.57
2018-06-04T17:59:05.769Z,20.60
2018-06-04T18:01:35.414Z,21.47
2018-06-04T18:04:05.350Z,22.50
2018-06-04T18:06:35.173Z,20.90
2018-06-04T18:09:08.411Z,22.53
2018-06-04T18:11:38.298Z,20.33
2018-06-04T18:14:07.924Z,20.57
2018-06-04T18:16:37.900Z,22.67
2018-06-04T18:19:17.064Z,20.53
2018-06-04T18:21:49.606Z,23.77
2018-06-04T18:24:19.418Z,26.00
2018-06-04T18:26:49.187Z,20.43
2018-06-04T18:29:19.153Z,23.13
2018-06-04T18:31:48.854Z,22.10
2018-06-04T18:34:18.623Z,25.20
2018-06-04T18:36:48.249Z,24.13
2018-06-04T18:39:18.007Z,20.27
2018-06-04T18:41:47.610Z,21.80
2018-06-04T18:44:17.418Z,21.43
2018-06-04T18:46:47.151Z,22.33
2018-06-04T18:49:16.880Z,21.33
2018-06-04T18:51:46.719Z,19.93
2018-06-04T18:54:16.488Z,21.93
2018-06-04T18:56:46.390Z,22.17
2018-06-04T18:59:16.064Z,22.43
2018-06-04T19:01:45.914Z,25.70
2018-06-04T19:04:15.601Z,25.70
2018-06-04T19:06:46.140Z,24.47
2018-06-04T19:09:15.936Z,23.33
2018-06-04T19:11:45.673Z,26.13
2018-06-04T19:14:15.380Z,24.97
2018-06-04T19:16:45.429Z,25.17
2018-06-04T19:19:15.210Z,25.13
2018-06-04T19:21:45.190Z,28.07
2018-06-04T19:24:14.769Z,25.63
2018-06-04T19:26:44.606Z,25.83
2018-06-04T19:29:14.522Z,28.77
2018-06-04T19:31:44.729Z,28.37
2018-06-04T19:34:14.776Z,29.70
2018-06-04T19:36:44.526Z,29.63
2018-06-04T19:39:14.366Z,29.97
2018-06-04T19:41:44.173Z,27.80
2018-06-04T19:44:13.988Z,30.15
2018-06-04T19:46:43.710Z,29.73
2018-06-04T19:49:13.341Z,32.23
2018-06-04T19:51:43.041Z,31.37
2018-06-04T19:54:16.555Z,30.30
2018-06-04T19:56:46.101Z,30.93
2018-06-04T19:59:15.838Z,31.37
2018-06-04T20:01:45.572Z,30.37
2018-06-04T20:04:15.327Z,33.07
2018-06-04T20:06:46.636Z,30.60
2018-06-04T20:09:16.596Z,30.87
2018-06-04T20:11:46.430Z,30.30
2018-06-04T20:14:16.666Z,32.43
2018-06-04T20:16:46.372Z,30.23
2018-06-04T20:19:16.145Z,30.07
2018-06-04T20:21:45.819Z,30.27
2018-06-04T20:24:15.590Z,29.13
2018-06-04T20:26:45.213Z,30.90
2018-06-04T20:29:15.032Z,32.53
2018-06-04T20:31:44.683Z,27.23
2018-06-04T20:34:14.409Z,32.30
2018-06-04T20:36:44.061Z,28.40
2018-06-04T20:39:13.957Z,27.07
2018-06-04T20:41:43.562Z,28.47
2018-06-04T20:44:13.377Z,28.67
2018-06-04T20:46:43.181Z,30.77
2018-06-04T20:49:12.926Z,29.10
2018-06-04T20:51:42.698Z,29.17
2018-06-04T20:54:12.402Z,28.57
2018-06-04T20:56:42.097Z,27.80
2018-06-04T20:59:12.657Z,31.17
2018-06-04T21:01:42.446Z,29.10
2018-06-04T21:04:12.197Z,29.10
2018-06-04T21:06:41.942Z,28.80
2018-06-04T21:09:11.888Z,29.20
2018-06-04T21:11:41.577Z,27.80
2018-06-04T21:14:11.569Z,28.83
2018-06-04T21:16:41.298Z,28.03
2018-06-04T21:19:11.046Z,30.50
2018-06-04T21:21:40.688Z,30.17
2018-06-04T21:24:10.855Z,28.83
2018-06-04T21:26:40.597Z,31.03
2018-06-04T21:29:10.641Z,28.23
2018-06-04T21:31:40.532Z,28.40
2018-06-04T21:34:10.839Z,27.77
2018-06-04T21:36:40.854Z,28.73
2018-06-04T21:39:10.511Z,28.80
2018-06-04T21:41:40.198Z,28.73
2018-06-04T21:44:09.925Z,30.13
2018-06-04T21:46:39.810Z,30.03
2018-06-04T21:49:09.672Z,28.27
2018-06-04T21:51:39.282Z,28.50
2018-06-04T21:54:08.931Z,28.50
2018-06-04T21:56:38.686Z,29.47
2018-06-04T21:59:08.382Z,29.10
2018-06-04T22:01:38.141Z,30.10
2018-06-04T22:04:07.906Z,30.40
2018-06-04T22:06:37.569Z,29.90
2018-06-04T22:09:09.378Z,28.77
2018-06-04T22:11:39.123Z,29.50
2018-06-04T22:14:08.781Z,30.23
2018-06-04T22:16:38.443Z,29.67
2018-06-04T22:19:08.085Z,31.63
2018-06-04T22:21:37.708Z,31.83
2018-06-04T22:24:07.557Z,32.77
2018-06-04T22:26:37.345Z,32.37
2018-06-04T22:29:07.089Z,31.80
2018-06-04T22:31:36.939Z,32.20
2018-06-04T22:34:06.781Z,32.67
2018-06-04T22:36:36.439Z,32.13
2018-06-04T22:39:09.440Z,32.53
2018-06-04T22:41:39.283Z,32.47
2018-06-04T22:44:08.884Z,32.50
2018-06-04T22:46:38.559Z,32.47
2018-06-04T22:49:08.295Z,31.53
2018-06-04T22:51:38.008Z,32.37
2018-06-04T22:54:07.595Z,33.67
2018-06-04T22:56:37.181Z,31.93
2018-06-04T22:59:06.454Z,32.17
2018-06-04T23:01:36.092Z,34.23
2018-06-04T23:04:05.782Z,31.90
2018-06-04T23:06:35.541Z,33.60
2018-06-04T23:09:07.469Z,32.27
2018-06-04T23:11:37.349Z,32.37
2018-06-04T23:14:07.004Z,32.40
2018-06-04T23:16:36.242Z,32.93
2018-06-04T23:19:05.854Z,34.90
2018-06-04T23:21:35.651Z,33.63
2018-06-04T23:24:05.564Z,34.03
2018-06-04T23:26:35.420Z,34.30
2018-06-04T23:29:05.245Z,34.70
2018-06-04T23:31:35.012Z,34.07
2018-06-04T23:34:04.642Z,32.97
2018-06-04T23:36:34.448Z,33.90
2018-06-04T23:39:06.016Z,32.67
2018-06-04T23:41:35.700Z,35.80
2018-06-04T23:44:05.442Z,36.23
2018-06-04T23:46:41.865Z,36.33
2018-06-04T23:49:11.488Z,36.20
2018-06-04T23:51:41.110Z,35.97
2018-06-04T23:54:10.762Z,37.10
2018-06-04T23:56:40.421Z,35.73
2018-06-04T23:59:10.026Z,37.30
